Fort Wayne, IN

2:37 PM EDT on April 25, 2015 (GMT -0400)
Defiance Memorial | | Change Station
CLOSE
Current Station
Airport
Location: Defiance,
Elevation: 705 ft
Nearby Weather Stations

Elev 705 ft 41.34 °N, 84.43 °W | Updated 44 minutes ago

Rain
Rain
49 °F
Feels Like 49 °F
N
14
Wind Variable Wind from East

Today
High -- | Low -- °F
--% Chance of Precip.
Yesterday
High -- | Low -- °F
Precip. -- in
6:47 AM 8:30 PM
Waxing Crescent, 48% visible
Pressure 29.81 in
Visibility 10.0 miles
Clouds Scattered Clouds 1700 ft
Mostly Cloudy 7500 ft
Mostly Cloudy 9000 ft
Dew Point 40 °F
Humidity 71%
Rainfall 0.01 in
Snow Depth Not available.
UV 5 out of 12
Pollen 10.00 out of 12
Air Quality Not available.
Flu Activity Local Activity
METAR KDFI 251753Z AUTO 08012KT 10SM SCT017 BKN075 BKN090 09/04 A2979 RMK AO2 SLP092 60001 T00940044 10100 20056 58018

More Conditions Fewer Conditions

Pressure 29.81 in
Visibility 10.0 miles
Clouds Scattered Clouds 1700 ft
Mostly Cloudy 7500 ft
Mostly Cloudy 9000 ft
Dew Point 40 °F
Humidity 71%
Rainfall 0.01 in
Snow Depth Not available.
UV 5 out of 12
Pollen 10.00 out of 12
Air Quality Not available.
Flu Activity Local Activity
METAR KDFI 251753Z AUTO 08012KT 10SM SCT017 BKN075 BKN090 09/04 A2979 RMK AO2 SLP092 60001 T00940044 10100 20056 58018

More Conditions Fewer Conditions

10-Day Weather Forecast

Almanac

Astronomy

Apr. 25, 2015 Rise Set
Actual Time
Civil Twilight
Nautical Twilight
Astronomical Twilight
Moon
Length of Visible Light
Length of Day
Tomorrow will be .
, % of the Moon is Illuminated

Today's Extremes

State Highs State Lows

Community

WunderPhotos

Upload Photos

1,816,766 photos uploaded!

WunderBlogs® & News

Nearby

Air Quality

  Air Quality AQ Index Pollutant
Not available.

Snow Depth

Station Depth Elevation

Earthquake Activity

City Distance Mag. Time & Date
Minimum magnitude displayed is 2.5.

Coastal Water Temperatures

Place Temperature

Stations

Nearby Weather Stations

Station Location Temp. Windchill Dew Point Humidity Wind Precip. Elev Updated Type